Time;durP1;ratioP1;P1;durP2;ratioP2;P2;SDS_P1;SDS_P2;PMS_P1;PMS_P2;Temp;Humidity;BMP_temperature;BMP_pressure;BME280_temperature;BME280_humidity;BME280_pressure;Samples;Min_cycle;Max_cycle;Signal;HPM_P1;HPM_P2
2022/04/20 00:00:18;;;;;;;18.27;11.43;;;11.50;88.90;;;;;;1844808;78;21228;-61
2022/04/20 00:02:47;;;;;;;17.02;11.00;;;11.50;88.90;;;;;;1844734;77;21173;-61
2022/04/20 00:05:17;;;;;;;21.05;12.63;;;11.50;89.40;;;;;;1844785;78;21088;-61
2022/04/20 00:07:46;;;;;;;20.15;12.15;;;11.50;89.10;;;;;;1844852;78;21535;-61
2022/04/20 00:10:16;;;;;;;25.45;15.68;;;11.50;89.00;;;;;;1853598;77;21073;-61
2022/04/20 00:12:45;;;;;;;24.95;16.23;;;11.40;89.20;;;;;;1856366;77;21536;-61
2022/04/20 00:15:14;;;;;;;19.37;13.08;;;11.50;88.90;;;;;;1856330;76;21148;-61
2022/04/20 00:17:44;;;;;;;19.12;12.68;;;11.50;89.00;;;;;;1856374;76;21123;-61
2022/04/20 00:20:13;;;;;;;19.42;13.15;;;11.50;89.10;;;;;;1856350;77;21167;-61
2022/04/20 00:22:42;;;;;;;22.93;13.20;;;11.50;89.20;;;;;;1856339;76;21119;-61
2022/04/20 00:25:12;;;;;;;21.45;13.50;;;11.40;89.40;;;;;;1856267;77;21111;-61
2022/04/20 00:27:41;;;;;;;24.30;12.50;;;11.40;89.40;;;;;;1856279;76;21118;-61
2022/04/20 00:30:12;;;;;;;19.55;11.20;;;11.40;89.20;;;;;;1856357;77;21102;-61
2022/04/20 00:32:42;;;;;;;20.48;11.57;;;11.40;89.00;;;;;;1856299;77;21106;-61
2022/04/20 00:35:11;;;;;;;19.77;11.95;;;11.50;89.10;;;;;;1856314;76;21128;-61
2022/04/20 00:37:42;;;;;;;17.80;10.45;;;11.50;89.70;;;;;;1856343;77;21041;-61
2022/04/20 00:40:12;;;;;;;16.77;9.78;;;11.50;88.70;;;;;;1855999;76;21181;-61
2022/04/20 00:42:42;;;;;;;24.50;12.25;;;11.60;88.80;;;;;;1856478;76;21086;-61
2022/04/20 00:45:13;;;;;;;22.58;12.43;;;11.60;88.90;;;;;;1856341;76;21049;-61
2022/04/20 00:47:43;;;;;;;24.52;13.43;;;11.60;88.50;;;;;;1856390;77;21180;-61
2022/04/20 00:50:14;;;;;;;23.67;11.97;;;11.60;88.60;;;;;;1856477;77;21148;-61
2022/04/20 00:52:43;;;;;;;34.60;17.17;;;11.60;89.20;;;;;;1856370;77;21040;-61
2022/04/20 00:55:14;;;;;;;22.75;10.78;;;11.60;88.80;;;;;;1856555;77;21010;-61
2022/04/20 00:57:44;;;;;;;21.27;12.23;;;11.60;88.70;;;;;;1856416;77;21135;-61
2022/04/20 01:00:15;;;;;;;26.87;13.10;;;11.60;88.60;;;;;;1856426;77;21056;-61
2022/04/20 01:02:48;;;;;;;19.27;10.58;;;11.50;88.70;;;;;;1856300;77;21206;-61
2022/04/20 01:05:19;;;;;;;25.72;12.95;;;11.50;88.60;;;;;;1856353;77;21057;-61
2022/04/20 01:08:07;;;;;;;23.30;12.20;;;11.50;88.80;;;;;;1856377;77;21053;-61
2022/04/20 01:10:44;;;;;;;21.40;12.07;;;11.40;88.80;;;;;;1848318;77;21143;-61
2022/04/20 01:13:15;;;;;;;19.10;11.80;;;11.40;88.90;;;;;;1820841;77;21041;-61
2022/04/20 01:15:52;;;;;;;19.10;10.13;;;11.40;88.90;;;;;;1847983;76;21143;-61
2022/04/20 01:18:36;;;;;;;19.82;10.72;;;11.40;88.80;;;;;;1798547;78;21056;-60
2022/04/20 01:21:10;;;;;;;;;;;11.40;89.20;;;;;;1829792;78;21094;-60
2022/04/20 01:23:53;;;;;;;27.17;16.90;;;11.40;89.40;;;;;;1846462;76;20940;-60
2022/04/20 01:26:38;;;;;;;19.60;12.35;;;11.30;89.00;;;;;;1847681;76;21097;-61
2022/04/20 01:29:20;;;;;;;12.18;7.65;;;11.30;89.20;;;;;;1776297;80;21292;-60
2022/04/20 01:31:51;;;;;;;13.30;7.42;;;11.20;89.60;;;;;;1844605;77;21152;-60
2022/04/20 01:34:22;;;;;;;8.65;6.40;;;11.10;89.30;;;;;;1846439;76;21278;-60
2022/04/20 01:36:51;;;;;;;12.58;7.00;;;11.10;89.50;;;;;;1844832;78;21168;-61
2022/04/20 01:39:21;;;;;;;11.88;7.62;;;11.00;89.40;;;;;;1844781;77;21166;-61
2022/04/20 01:41:50;;;;;;;13.15;8.08;;;11.00;89.80;;;;;;1844857;78;21062;-61
2022/04/20 01:44:20;;;;;;;15.30;9.98;;;10.90;90.10;;;;;;1844727;78;21013;-61
2022/04/20 01:47:07;;;;;;;17.77;9.98;;;10.90;90.00;;;;;;1844607;78;21634;-61
2022/04/20 01:49:38;;;;;;;13.72;9.73;;;10.80;90.20;;;;;;1844631;77;21199;-60
2022/04/20 01:52:25;;;;;;;13.53;8.10;;;10.80;90.10;;;;;;1844641;78;21545;-60
2022/04/20 01:54:56;;;;;;;13.72;7.72;;;10.80;90.10;;;;;;1845650;76;21212;-61
2022/04/20 01:57:43;;;;;;;17.60;8.40;;;10.70;90.00;;;;;;1849758;77;21076;-60
2022/04/20 02:00:16;;;;;;;12.68;8.00;;;10.70;89.80;;;;;;1846123;77;21231;-61
2022/04/20 02:02:47;;;;;;;11.35;7.30;;;10.70;90.00;;;;;;1845556;76;21147;-60
2022/04/20 02:05:27;;;;;;;8.03;6.03;;;10.70;89.90;;;;;;1844474;78;21207;-61
2022/04/20 02:08:15;;;;;;;9.88;5.28;;;10.60;89.80;;;;;;1844672;77;21193;-60
2022/04/20 02:10:46;;;;;;;12.05;5.60;;;10.60;89.50;;;;;;1850834;76;21151;-60
2022/04/20 02:13:15;;;;;;;10.32;6.22;;;10.50;89.30;;;;;;1856187;76;21192;-60
2022/04/20 02:15:45;;;;;;;9.95;4.83;;;10.50;89.60;;;;;;1856284;76;21041;-61
2022/04/20 02:18:22;;;;;;;9.43;6.58;;;10.50;89.50;;;;;;1854455;76;21080;-60
2022/04/20 02:20:53;;;;;;;10.53;6.15;;;10.40;89.60;;;;;;1857638;76;21090;-61
2022/04/20 02:23:22;;;;;;;12.80;8.03;;;10.30;89.50;;;;;;1856371;77;21037;-61
2022/04/20 02:25:51;;;;;;;13.40;7.95;;;10.30;89.60;;;;;;1856143;77;21041;-61
2022/04/20 02:28:22;;;;;;;11.78;6.17;;;10.30;89.60;;;;;;1856340;76;21598;-60
2022/04/20 02:30:52;;;;;;;9.53;5.95;;;10.20;89.80;;;;;;1856349;77;21073;-61
2022/04/20 02:33:22;;;;;;;16.70;6.60;;;10.20;90.00;;;;;;1856383;76;21040;-61
2022/04/20 02:35:51;;;;;;;10.03;6.87;;;10.20;89.70;;;;;;1856330;76;21087;-61
2022/04/20 02:38:20;;;;;;;8.43;5.72;;;10.20;89.50;;;;;;1856175;77;21176;-60
2022/04/20 02:40:52;;;;;;;7.40;5.60;;;10.20;89.50;;;;;;1856158;76;21024;-61
2022/04/20 02:43:21;;;;;;;8.70;6.60;;;10.20;89.60;;;;;;1856290;77;21036;-60
2022/04/20 02:45:50;;;;;;;13.40;8.50;;;10.20;89.80;;;;;;1856180;76;21072;-61
2022/04/20 02:48:20;;;;;;;11.10;7.65;;;10.10;89.60;;;;;;1856289;77;21416;-61
2022/04/20 02:50:49;;;;;;;8.80;6.10;;;10.10;89.70;;;;;;1856333;76;21155;-60
2022/04/20 02:53:18;;;;;;;7.75;5.25;;;10.10;89.60;;;;;;1877014;76;21052;-60
2022/04/20 02:55:48;;;;;;;8.55;6.28;;;10.10;89.60;;;;;;1856312;77;21468;-60
2022/04/20 02:58:18;;;;;;;9.03;6.03;;;10.10;89.40;;;;;;1856369;77;21052;-60
2022/04/20 03:00:49;;;;;;;9.95;7.15;;;10.10;89.20;;;;;;1856754;76;21107;-61
2022/04/20 03:03:23;;;;;;;10.67;6.87;;;10.20;89.50;;;;;;1856588;76;21168;-60
2022/04/20 03:05:53;;;;;;;8.80;6.78;;;10.30;89.80;;;;;;1877076;76;21727;-60
2022/04/20 03:08:24;;;;;;;10.50;6.17;;;10.40;89.50;;;;;;1856430;77;21021;-60
2022/04/20 03:10:54;;;;;;;9.68;6.55;;;10.50;89.40;;;;;;1856384;77;21164;-61
2022/04/20 03:13:24;;;;;;;9.53;6.00;;;10.50;89.00;;;;;;1856441;77;21037;-60
2022/04/20 03:15:54;;;;;;;10.38;6.20;;;10.60;88.90;;;;;;1856316;76;21044;-60
2022/04/20 03:18:23;;;;;;;9.13;5.78;;;10.60;88.70;;;;;;1856308;76;21033;-60
2022/04/20 03:20:53;;;;;;;12.00;8.23;;;10.60;88.50;;;;;;1856300;77;21045;-61
2022/04/20 03:23:23;;;;;;;11.48;7.08;;;10.70;88.60;;;;;;1856418;77;21045;-60
2022/04/20 03:25:53;;;;;;;9.08;5.55;;;10.70;88.70;;;;;;1856327;77;21103;-60
2022/04/20 03:28:40;;;;;;;12.50;7.45;;;10.70;88.60;;;;;;1856438;77;21103;-63
2022/04/20 03:31:10;;;;;;;8.55;6.12;;;10.70;88.50;;;;;;1856348;77;21106;-63
2022/04/20 03:33:39;;;;;;;8.05;6.08;;;10.80;88.60;;;;;;1856472;76;21092;-63
2022/04/20 03:36:09;;;;;;;7.03;5.10;;;10.80;88.30;;;;;;1856411;76;21123;-63
2022/04/20 03:38:38;;;;;;;8.73;6.05;;;10.70;88.00;;;;;;1856505;77;21107;-63
2022/04/20 03:41:07;;;;;;;8.55;5.62;;;10.70;88.10;;;;;;1856403;77;21130;-63
2022/04/20 03:43:37;;;;;;;8.38;6.40;;;10.70;88.20;;;;;;1856404;77;21045;-63
2022/04/20 03:46:06;;;;;;;8.35;5.95;;;10.70;88.40;;;;;;1856289;77;21061;-61
2022/04/20 03:48:36;;;;;;;9.35;6.25;;;10.70;88.30;;;;;;1856356;76;21111;-61
2022/04/20 03:51:05;;;;;;;12.28;6.62;;;10.70;88.30;;;;;;1856274;77;21041;-62
2022/04/20 03:53:35;;;;;;;11.50;6.90;;;10.60;88.10;;;;;;1856384;76;21024;-61
2022/04/20 03:56:06;;;;;;;10.88;6.67;;;10.60;88.20;;;;;;1876704;76;21009;-61
2022/04/20 03:58:36;;;;;;;11.10;7.40;;;10.60;88.40;;;;;;1877105;76;21025;-61
2022/04/20 04:01:06;;;;;;;10.35;6.55;;;10.70;88.40;;;;;;1856277;76;21083;-61
2022/04/20 04:03:36;;;;;;;10.72;7.55;;;10.70;88.30;;;;;;1856290;76;21053;-61
2022/04/20 04:06:07;;;;;;;10.53;7.05;;;10.80;88.50;;;;;;1857093;76;21093;-61
2022/04/20 04:08:37;;;;;;;8.45;5.78;;;10.80;88.60;;;;;;1856230;77;21511;-61
2022/04/20 04:11:07;;;;;;;10.53;5.83;;;10.90;88.60;;;;;;1854986;76;21077;-61
2022/04/20 04:13:37;;;;;;;9.18;5.62;;;10.90;88.60;;;;;;1818512;79;21106;-61
2022/04/20 04:16:07;;;;;;;12.73;7.80;;;11.00;88.50;;;;;;1818503;78;21033;-61
2022/04/20 04:18:36;;;;;;;11.20;5.20;;;11.10;88.50;;;;;;1818563;78;21033;-61
2022/04/20 04:21:07;;;;;;;9.45;6.15;;;11.10;88.40;;;;;;1818516;77;21063;-61
2022/04/20 04:23:37;;;;;;;8.00;4.80;;;11.20;88.40;;;;;;1818716;78;21420;-61
2022/04/20 04:26:13;;;;;;;6.22;5.20;;;11.20;88.40;;;;;;1817142;78;21081;-61
2022/04/20 04:28:47;;;;;;;7.90;5.10;;;11.30;88.30;;;;;;1818597;77;21059;-61
2022/04/20 04:31:17;;;;;;;7.58;5.40;;;11.30;88.30;;;;;;1818613;78;21033;-61
2022/04/20 04:33:46;;;;;;;6.17;5.00;;;11.30;88.30;;;;;;1818606;78;21056;-61
2022/04/20 04:36:16;;;;;;;9.00;5.22;;;11.30;88.20;;;;;;1818503;79;21033;-61
2022/04/20 04:38:47;;;;;;;7.22;4.67;;;11.40;88.20;;;;;;1818520;77;21043;-61
2022/04/20 04:41:17;;;;;;;5.75;4.70;;;11.40;88.10;;;;;;1818640;78;21115;-61
2022/04/20 04:43:47;;;;;;;9.13;5.80;;;11.30;88.00;;;;;;1818704;78;21112;-61
2022/04/20 04:49:05;;;;;;;6.95;4.30;;;11.40;88.20;;;;;;1817892;78;21146;-62
2022/04/20 04:51:35;;;;;;;8.35;3.92;;;11.40;88.00;;;;;;1818622;78;21037;-62
2022/04/20 04:54:05;;;;;;;7.35;4.30;;;11.30;88.00;;;;;;1818696;79;21045;-62
2022/04/20 04:56:35;;;;;;;8.98;4.65;;;11.30;88.00;;;;;;1818504;78;21099;-62
2022/04/20 04:59:04;;;;;;;7.70;3.90;;;11.30;88.30;;;;;;1818546;79;21114;-61
2022/04/20 05:01:34;;;;;;;5.37;3.72;;;11.30;88.20;;;;;;1818642;78;21052;-61
2022/04/20 05:04:05;;;;;;;7.92;3.90;;;11.30;88.00;;;;;;1817973;78;21057;-61
2022/04/20 05:06:36;;;;;;;7.12;3.72;;;11.20;88.00;;;;;;1818535;79;21041;-61
2022/04/20 05:09:13;;;;;;;5.58;3.95;;;11.10;88.00;;;;;;1818660;77;21065;-61
2022/04/20 05:11:44;;;;;;;4.15;3.40;;;11.10;88.30;;;;;;1819297;77;21462;-61
2022/04/20 05:14:14;;;;;;;6.87;4.42;;;11.10;88.30;;;;;;1844809;78;21049;-61
2022/04/20 05:16:45;;;;;;;7.50;4.05;;;11.10;88.30;;;;;;1844899;76;21064;-61
2022/04/20 05:19:15;;;;;;;6.60;3.77;;;11.10;88.50;;;;;;1844761;77;21053;-61
2022/04/20 05:21:44;;;;;;;5.50;4.25;;;11.10;88.20;;;;;;1844915;77;21049;-61
2022/04/20 05:24:14;;;;;;;5.83;4.45;;;11.10;88.40;;;;;;1844698;78;21105;-61
2022/04/20 05:26:43;;;;;;;9.90;5.72;;;11.20;88.30;;;;;;1844735;78;21049;-61
2022/04/20 05:29:12;;;;;;;10.45;7.78;;;11.30;88.60;;;;;;1844842;77;21095;-61
2022/04/20 05:31:44;;;;;;;7.60;5.90;;;11.30;88.40;;;;;;1846686;76;21109;-61
2022/04/20 05:34:14;;;;;;;7.97;5.97;;;11.30;88.30;;;;;;1844688;78;21142;-61
2022/04/20 05:42:06;;;;;;;9.18;5.33;;;11.50;89.00;;;;;;1844731;78;21058;-61
2022/04/20 05:44:37;;;;;;;5.95;3.62;;;11.60;89.00;;;;;;1844775;77;21148;-61
2022/04/20 05:47:06;;;;;;;3.83;2.95;;;11.60;89.20;;;;;;1844681;77;21045;-61
2022/04/20 05:49:36;;;;;;;4.53;3.20;;;11.70;89.40;;;;;;1844633;77;21045;-61
2022/04/20 05:52:06;;;;;;;3.52;3.22;;;11.70;89.00;;;;;;1844570;77;21111;-61
2022/04/20 05:54:35;;;;;;;2.22;1.92;;;11.70;88.80;;;;;;1844612;78;21111;-61
2022/04/20 05:57:06;;;;;;;3.45;2.80;;;11.70;89.00;;;;;;1844851;76;21116;-60
2022/04/20 05:59:37;;;;;;;2.17;1.82;;;11.70;89.60;;;;;;1844693;76;21026;-60
2022/04/20 06:02:06;;;;;;;2.12;1.67;;;11.80;89.50;;;;;;1844621;77;21037;-61
2022/04/20 06:04:36;;;;;;;1.80;1.60;;;11.80;89.10;;;;;;1844585;77;21013;-61
2022/04/20 06:07:07;;;;;;;2.90;1.70;;;11.80;89.20;;;;;;1844625;78;21082;-61
2022/04/20 06:09:38;;;;;;;1.65;1.55;;;11.80;89.00;;;;;;1845004;76;21049;-61
2022/04/20 06:12:15;;;;;;;1.65;1.55;;;11.80;89.20;;;;;;1844724;77;21062;-61
2022/04/20 06:15:02;;;;;;;2.35;1.72;;;11.90;89.20;;;;;;1844533;78;21601;-61
2022/04/20 06:17:36;;;;;;;2.02;1.80;;;11.90;88.40;;;;;;1845318;76;21167;-60
2022/04/20 06:20:06;;;;;;;2.05;1.60;;;11.90;88.40;;;;;;1844599;77;21054;-61
2022/04/20 06:22:40;;;;;;;4.22;2.35;;;11.90;88.40;;;;;;1846543;76;21075;-61
2022/04/20 06:25:17;;;;;;;3.62;2.17;;;11.90;88.30;;;;;;1846339;76;21149;-61
2022/04/20 06:27:48;;;;;;;2.72;1.82;;;12.00;88.00;;;;;;1846962;76;21105;-61
2022/04/20 06:30:25;;;;;;;2.65;1.80;;;12.00;87.80;;;;;;1846904;76;21155;-60
2022/04/20 06:32:56;;;;;;;1.70;1.60;;;12.00;87.40;;;;;;1844877;76;21101;-61
2022/04/20 06:35:43;;;;;;;1.95;1.70;;;12.00;87.60;;;;;;1844680;78;21086;-61
2022/04/20 06:38:14;;;;;;;1.72;1.37;;;12.00;87.40;;;;;;1847551;76;21068;-61
2022/04/20 06:41:01;;;;;;;2.98;1.60;;;12.10;87.40;;;;;;1844717;78;21049;-61
2022/04/20 06:43:33;;;;;;;3.08;1.40;;;12.10;86.70;;;;;;1846585;76;21113;-61
2022/04/20 06:46:04;;;;;;;1.27;1.17;;;12.20;87.00;;;;;;1847304;77;21122;-61
2022/04/20 06:48:37;;;;;;;3.08;1.80;;;12.20;86.50;;;;;;1845279;76;21094;-61
2022/04/20 06:51:24;;;;;;;1.27;1.15;;;12.20;86.30;;;;;;1844812;77;21521;-61
2022/04/20 06:59:30;;;;;;;1.65;1.45;;;12.00;85.80;;;;;;1844696;76;21067;-61
2022/04/20 07:02:01;;;;;;;3.15;1.90;;;12.00;85.80;;;;;;1845436;76;21188;-61
2022/04/20 07:04:35;;;;;;;2.60;1.35;;;12.00;85.90;;;;;;1847432;76;21053;-61
2022/04/20 07:07:18;;;;;;;1.60;1.50;;;11.90;86.00;;;;;;1846125;76;21097;-61
2022/04/20 07:10:07;;;;;;;1.50;1.40;;;11.90;85.50;;;;;;1845303;76;21199;-61
2022/04/20 07:12:51;;;;;;;2.12;1.70;;;11.80;85.60;;;;;;1846382;77;21082;-61
2022/04/20 07:15:21;;;;;;;2.35;1.85;;;11.80;86.00;;;;;;1844711;78;21069;-61
2022/04/20 07:17:52;;;;;;;1.80;1.70;;;11.80;86.30;;;;;;1844733;76;21120;-61
2022/04/20 07:20:26;;;;;;;2.33;1.80;;;11.90;86.60;;;;;;1846031;76;21109;-61
2022/04/20 07:23:06;;;;;;;2.83;1.70;;;12.00;86.60;;;;;;1846248;76;21176;-61
2022/04/20 07:25:38;;;;;;;4.53;1.98;;;12.20;86.60;;;;;;1845236;76;21148;-61
2022/04/20 07:28:18;;;;;;;4.65;3.25;;;12.30;86.50;;;;;;1845491;76;21101;-61
2022/04/20 07:30:49;;;;;;;3.08;2.30;;;12.60;85.50;;;;;;1847851;77;21060;-62
2022/04/20 07:33:36;;;;;;;4.42;1.80;;;12.70;86.00;;;;;;1842179;78;21096;-61
2022/04/20 07:36:16;;;;;;;1.92;1.50;;;12.80;84.40;;;;;;1808355;78;21103;-61
2022/04/20 07:38:48;;;;;;;4.17;2.75;;;12.90;82.90;;;;;;1782413;78;21091;-62
2022/04/20 07:41:29;;;;;;;3.52;1.57;;;12.90;82.10;;;;;;1778760;80;21113;-60
2022/04/20 07:44:00;;;;;;;2.45;1.77;;;12.90;82.80;;;;;;1840405;77;21011;-60
2022/04/20 07:46:49;;;;;;;2.75;1.55;;;12.90;81.60;;;;;;1835717;77;21020;-60
2022/04/20 07:52:45;;;;;;;1.92;1.60;;;12.80;81.60;;;;;;1841904;78;21628;-60
2022/04/20 07:55:18;;;;;;;13.32;2.80;;;12.80;81.10;;;;;;1827710;77;21134;-60
2022/04/20 07:57:56;;;;;;;5.75;2.52;;;12.80;81.70;;;;;;1839363;77;21090;-59
2022/04/20 08:01:59;;;;;;;4.58;2.20;;;12.80;76.50;;;;;;1937235;73;27546;-59
2022/04/20 08:04:29;;;;;;;5.97;3.98;;;12.80;79.70;;;;;;1917913;73;21089;-59
2022/04/20 08:10:27;;;;;;;3.50;3.12;;;12.60;75.90;;;;;;1944445;72;25793;-62
2022/04/20 08:12:57;;;;;;;7.20;2.90;;;12.60;78.60;;;;;;1924471;74;21041;-62
2022/04/20 08:15:30;;;;;;;9.10;3.00;;;12.60;79.10;;;;;;1887123;76;21170;-58
2022/04/20 08:18:00;;;;;;;3.37;2.20;;;12.60;79.60;;;;;;1891135;74;21126;-59
2022/04/20 08:20:46;;;;;;;3.45;2.83;;;12.60;79.20;;;;;;1834859;77;21070;-59
2022/04/20 08:23:17;;;;;;;11.57;3.85;;;12.60;78.50;;;;;;1870494;76;21547;-59
2022/04/20 08:25:46;;;;;;;3.80;1.77;;;12.60;79.50;;;;;;1924231;74;21064;-59
2022/04/20 08:28:15;;;;;;;13.30;3.30;;;12.70;78.30;;;;;;1887369;76;21139;-58
2022/04/20 08:30:45;;;;;;;8.05;4.47;;;12.80;78.40;;;;;;1924115;74;21018;-60
2022/04/20 08:33:14;;;;;;;6.33;2.72;;;12.80;78.00;;;;;;1887389;76;21041;-60
2022/04/20 08:35:43;;;;;;;4.65;2.50;;;12.80;76.10;;;;;;1924465;74;21091;-61
2022/04/20 08:38:13;;;;;;;9.78;2.45;;;12.90;77.80;;;;;;1887464;75;21088;-61
2022/04/20 08:40:43;;;;;;;6.85;2.77;;;12.90;78.30;;;;;;1924609;74;21070;-61
2022/04/20 08:47:45;;;;;;;3.62;2.15;;;13.10;74.70;;;;;;1958897;72;26386;-58
2022/04/20 08:59:05;;;;;;;6.60;1.92;;;12.80;70.50;;;;;;1926233;72;27681;-68
2022/04/20 09:15:16;;;;;;;6.22;1.98;;;12.80;68.70;;;;;;1958347;72;25597;-67
2022/04/20 09:17:58;;;;;;;3.00;2.33;;;12.80;70.10;;;;;;1957947;72;25797;-67
2022/04/20 09:20:27;;;;;;;5.22;2.58;;;12.90;69.60;;;;;;1917633;74;21035;-66
2022/04/20 09:26:54;;;;;;;7.22;2.40;;;13.00;69.60;;;;;;1972785;73;25586;-64
2022/04/20 09:29:23;;;;;;;6.65;2.37;;;13.20;71.10;;;;;;1948427;73;21043;-63
2022/04/20 10:00:58;;;;;;;4.30;2.20;;;13.70;62.30;;;;;;1958130;72;25884;-70
2022/04/20 10:18:21;;;;;;;3.80;2.00;;;13.80;64.10;;;;;;1958038;73;25745;-65
2022/04/20 10:20:52;;;;;;;2.00;1.77;;;13.80;64.30;;;;;;1917802;75;21043;-58
2022/04/20 10:25:28;;;;;;;7.28;2.65;;;13.80;62.30;;;;;;1958178;73;27926;-56
2022/04/20 10:28:19;;;;;;;8.03;2.87;;;13.80;64.00;;;;;;1918317;75;21148;-56
2022/04/20 10:31:03;;;;;;;5.47;2.27;;;13.90;63.40;;;;;;1918469;74;21011;-56
2022/04/20 10:33:35;;;;;;;4.03;1.98;;;13.90;61.60;;;;;;1918427;75;21047;-56
2022/04/20 10:54:27;;;;;;;9.30;2.40;;;13.70;59.00;;;;;;1958985;72;26348;-57
2022/04/20 10:57:04;;;;;;;5.35;2.60;;;13.60;60.20;;;;;;1917021;74;21075;-58
2022/04/20 10:59:33;;;;;;;10.68;2.90;;;13.60;60.00;;;;;;1918670;75;21489;-58
2022/04/20 11:02:07;;;;;;;8.20;2.45;;;13.50;59.50;;;;;;1918507;75;21014;-58
2022/04/20 11:04:43;;;;;;;5.17;2.10;;;13.50;60.80;;;;;;1918596;74;21054;-58
2022/04/20 11:07:15;;;;;;;9.10;2.50;;;13.50;61.30;;;;;;1918446;75;21043;-58
2022/04/20 11:09:52;;;;;;;9.80;2.87;;;13.60;60.50;;;;;;1918346;74;21018;-58
2022/04/20 11:21:11;;;;;;;5.75;2.40;;;13.80;61.00;;;;;;1915067;74;21042;-57
2022/04/20 11:24:05;;;;;;;5.30;2.30;;;13.90;59.90;;;;;;1918344;75;21536;-57
2022/04/20 11:26:37;;;;;;;9.60;3.02;;;13.90;59.60;;;;;;1917061;73;21019;-57
2022/04/20 11:29:15;;;;;;;6.30;2.85;;;13.90;58.90;;;;;;1918333;75;21073;-57
2022/04/20 11:31:48;;;;;;;5.37;2.50;;;14.00;59.80;;;;;;1918171;73;21047;-57
2022/04/20 11:34:26;;;;;;;5.33;2.02;;;14.10;60.30;;;;;;1918370;75;21054;-57
2022/04/20 11:36:53;;;;;;;2.85;1.52;;;14.10;59.70;;;;;;1916906;74;21118;-57
2022/04/20 11:39:24;;;;;;;5.72;2.47;;;14.10;58.10;;;;;;1918273;75;21072;-58
2022/04/20 11:42:04;;;;;;;6.17;2.08;;;14.10;59.60;;;;;;1918313;75;21019;-57
2022/04/20 11:44:36;;;;;;;5.67;2.72;;;14.10;59.10;;;;;;1917605;73;21023;-57
2022/04/20 11:47:09;;;;;;;8.98;3.80;;;14.10;58.70;;;;;;1917800;74;21071;-57
2022/04/20 11:49:40;;;;;;;3.87;1.95;;;14.00;57.70;;;;;;1917428;74;20995;-57
2022/04/20 11:52:13;;;;;;;3.92;2.20;;;14.00;58.00;;;;;;1917355;74;21496;-57
2022/04/20 11:54:45;;;;;;;4.95;2.33;;;13.90;58.70;;;;;;1906631;75;21497;-57
2022/04/20 11:57:17;;;;;;;7.95;3.58;;;13.90;59.20;;;;;;1905501;74;21083;-57
2022/04/20 11:59:49;;;;;;;12.15;3.15;;;14.00;59.80;;;;;;1905811;75;21085;-57
2022/04/20 12:02:19;;;;;;;7.15;2.37;;;13.90;58.70;;;;;;1905987;75;20992;-57
2022/04/20 12:04:50;;;;;;;6.40;2.05;;;13.90;58.60;;;;;;1905006;74;21126;-57
2022/04/20 12:07:20;;;;;;;5.47;2.50;;;13.90;59.00;;;;;;1905392;74;21493;-57
2022/04/20 12:09:54;;;;;;;8.30;2.42;;;13.90;58.40;;;;;;1905262;75;21024;-57
2022/04/20 12:12:23;;;;;;;4.85;2.62;;;14.00;59.00;;;;;;1905326;74;21003;-56
2022/04/20 12:14:52;;;;;;;4.55;2.17;;;13.90;59.10;;;;;;1905332;74;21004;-56
2022/04/20 12:17:22;;;;;;;8.05;3.30;;;14.00;59.50;;;;;;1905344;75;21023;-57
2022/04/20 12:19:53;;;;;;;5.35;2.55;;;14.00;59.60;;;;;;1905238;74;21072;-56
2022/04/20 12:22:22;;;;;;;9.15;2.77;;;14.10;59.70;;;;;;1905390;74;21023;-57
2022/04/20 12:25:20;;;;;;;6.42;2.77;;;14.20;59.80;;;;;;1905360;75;21019;-56
2022/04/20 12:27:52;;;;;;;3.05;1.70;;;14.20;59.20;;;;;;1903833;74;21036;-57
2022/04/20 12:30:37;;;;;;;5.00;2.25;;;14.30;58.80;;;;;;1905383;75;21085;-57
2022/04/20 12:33:08;;;;;;;6.05;2.75;;;14.40;57.70;;;;;;1905217;75;21023;-56
2022/04/20 12:35:37;;;;;;;4.33;2.10;;;14.40;58.20;;;;;;1905449;75;20999;-56
2022/04/20 12:38:11;;;;;;;4.90;2.55;;;14.40;57.80;;;;;;1900744;74;21068;-57
2022/04/20 12:40:41;;;;;;;4.30;2.35;;;14.40;57.80;;;;;;1905403;74;21202;-57
2022/04/20 12:43:12;;;;;;;12.63;3.22;;;14.40;57.60;;;;;;1905242;75;21113;-57
2022/04/20 12:45:43;;;;;;;5.30;2.10;;;14.40;58.10;;;;;;1905210;74;21089;-56
2022/04/20 12:48:13;;;;;;;5.17;2.30;;;14.50;57.90;;;;;;1905307;75;21078;-57
2022/04/20 12:50:44;;;;;;;7.80;2.45;;;14.50;56.90;;;;;;1905376;75;21047;-57
2022/04/20 12:53:14;;;;;;;6.62;2.60;;;14.50;56.60;;;;;;1906625;74;21020;-57
2022/04/20 13:02:04;;;;;;;4.72;2.85;;;14.50;56.40;;;;;;1870994;74;21108;-57
2022/04/20 13:04:34;;;;;;;4.75;2.37;;;14.50;56.40;;;;;;1918338;73;21080;-57
2022/04/20 13:07:03;;;;;;;6.22;3.45;;;14.40;56.90;;;;;;1918485;75;21077;-57
2022/04/20 13:09:33;;;;;;;7.22;2.30;;;14.40;57.00;;;;;;1918443;75;21466;-57
2022/04/20 13:12:04;;;;;;;5.25;2.75;;;14.40;56.90;;;;;;1918453;74;21092;-57
2022/04/20 13:14:33;;;;;;;9.53;2.65;;;14.40;56.60;;;;;;1918414;73;21088;-57
2022/04/20 13:17:03;;;;;;;5.00;3.50;;;14.40;56.70;;;;;;1918259;73;21043;-58
2022/04/20 13:19:33;;;;;;;4.65;2.50;;;14.30;57.00;;;;;;1918344;75;21039;-57
2022/04/20 13:29:02;;;;;;;5.37;2.55;;;14.00;57.10;;;;;;1918402;75;21051;-57
2022/04/20 13:31:32;;;;;;;6.62;2.90;;;14.00;57.60;;;;;;1881571;76;21030;-57
2022/04/20 13:34:02;;;;;;;6.87;2.20;;;14.00;57.70;;;;;;1865712;77;21113;-58
2022/04/20 13:36:31;;;;;;;6.50;2.70;;;14.00;57.50;;;;;;1865874;77;21035;-58
2022/04/20 13:39:00;;;;;;;7.92;2.90;;;14.00;57.40;;;;;;1865904;77;21035;-57
2022/04/20 13:41:31;;;;;;;5.83;2.42;;;13.90;57.00;;;;;;1865856;77;21506;-57
2022/04/20 13:44:00;;;;;;;6.25;2.50;;;13.80;57.00;;;;;;1865900;77;21023;-57
2022/04/20 13:46:29;;;;;;;11.60;2.90;;;13.80;57.60;;;;;;1865904;77;21035;-58
2022/04/20 13:48:59;;;;;;;4.90;2.70;;;13.70;57.10;;;;;;1866025;77;21019;-58
2022/04/20 13:51:29;;;;;;;4.97;3.30;;;13.70;57.30;;;;;;1865894;77;21043;-58
2022/04/20 13:53:58;;;;;;;3.65;2.45;;;13.70;57.20;;;;;;1865894;77;21035;-57
2022/04/20 13:56:28;;;;;;;8.25;3.47;;;13.60;57.00;;;;;;1865893;77;21101;-57
2022/04/20 13:58:57;;;;;;;5.72;2.92;;;13.60;57.30;;;;;;1865992;77;21094;-56
